createdAt,value
2023-03-28T00:01:28.265Z,-7.10
2023-03-28T00:03:57.163Z,-4.30
2023-03-28T00:06:26.335Z,-3.03
2023-03-28T00:08:53.943Z,-2.83
2023-03-28T00:11:22.023Z,-3.84
2023-03-28T00:13:53.719Z,-2.67
2023-03-28T00:16:20.477Z,-2.84
2023-03-28T00:18:47.491Z,-3.17
2023-03-28T00:21:24.069Z,-4.46
2023-03-28T00:23:56.134Z,-4.78
2023-03-28T00:26:25.292Z,-3.43
2023-03-28T00:28:52.474Z,-3.38
2023-03-28T00:31:19.300Z,-2.92
2023-03-28T00:33:47.641Z,-3.91
2023-03-28T00:36:18.515Z,-3.15
2023-03-28T00:38:46.071Z,-3.44
2023-03-28T00:41:16.019Z,-3.22
2023-03-28T00:43:45.408Z,-6.00
2023-03-28T00:46:38.285Z,-5.47
2023-03-28T00:49:12.288Z,-5.23
2023-03-28T00:51:44.733Z,-5.62
2023-03-28T00:54:15.802Z,-4.38
2023-03-28T00:56:47.334Z,-6.44
2023-03-28T00:59:18.824Z,-4.59
2023-03-28T01:01:46.901Z,-4.21
2023-03-28T01:04:20.458Z,-5.42
2023-03-28T01:06:54.667Z,-5.33
2023-03-28T01:09:24.128Z,-5.70
2023-03-28T01:11:54.764Z,-5.93
2023-03-28T01:14:24.172Z,-7.14
2023-03-28T01:16:56.285Z,-5.87
2023-03-28T01:19:58.892Z,-5.72
2023-03-28T01:22:57.224Z,-5.86
2023-03-28T01:25:47.793Z,-6.44
2023-03-28T01:28:31.999Z,-5.98
2023-03-28T01:31:29.845Z,-5.11
2023-03-28T01:34:45.295Z,-4.67
2023-03-28T01:37:14.948Z,-4.75
2023-03-28T01:40:00.955Z,-5.13
2023-03-28T01:43:01.945Z,-6.20
2023-03-28T01:46:06.014Z,-4.82
2023-03-28T01:48:43.444Z,-5.52
2023-03-28T01:51:34.176Z,-5.11
2023-03-28T01:54:05.869Z,-5.33
2023-03-28T01:56:46.471Z,-4.76
2023-03-28T01:59:22.117Z,-5.19
2023-03-28T02:02:39.141Z,-5.78
2023-03-28T02:05:22.442Z,-4.73
2023-03-28T02:07:51.993Z,-5.46
2023-03-28T02:10:25.335Z,-4.55
2023-03-28T02:13:03.462Z,-5.14
2023-03-28T02:15:59.470Z,-3.94
2023-03-28T02:18:34.170Z,-3.81
2023-03-28T02:21:25.376Z,-3.76
2023-03-28T02:24:06.529Z,-3.93
2023-03-28T02:26:54.306Z,-4.39
2023-03-28T02:29:56.388Z,-5.32
2023-03-28T02:32:35.823Z,-5.19
2023-03-28T02:35:05.603Z,-4.86
2023-03-28T02:37:51.953Z,-4.70
2023-03-28T02:40:44.454Z,-4.59
2023-03-28T02:43:32.530Z,-5.15
2023-03-28T02:46:17.635Z,-4.86
2023-03-28T02:49:06.273Z,-4.77
2023-03-28T02:51:46.289Z,-4.37
2023-03-28T02:54:31.598Z,-5.55
2023-03-28T02:57:30.472Z,-4.08
2023-03-28T03:00:11.529Z,-4.37
2023-03-28T03:02:42.026Z,-5.20
2023-03-28T03:05:09.755Z,-5.69
2023-03-28T03:07:37.808Z,-6.18
2023-03-28T03:10:07.392Z,-7.22
2023-03-28T03:12:36.026Z,-8.22
2023-03-28T03:15:05.180Z,-6.52
2023-03-28T03:17:52.776Z,-5.66
2023-03-28T03:20:32.875Z,-6.87
2023-03-28T03:23:03.349Z,-4.70
2023-03-28T03:25:33.549Z,-4.39
2023-03-28T03:28:09.228Z,-4.41
2023-03-28T03:30:35.941Z,-4.27
2023-03-28T03:33:21.398Z,-6.73
2023-03-28T03:35:53.563Z,-5.80
2023-03-28T03:38:20.950Z,-6.37
2023-03-28T03:40:47.569Z,-6.59
2023-03-28T03:43:15.625Z,-10.21
2023-03-28T03:45:45.932Z,-8.15
2023-03-28T03:48:12.754Z,-6.87
2023-03-28T03:50:40.588Z,-7.61
2023-03-28T03:53:13.031Z,-7.65
2023-03-28T03:55:48.039Z,-5.61
2023-03-28T03:58:15.368Z,-6.45
2023-03-28T04:00:44.717Z,-5.06
2023-03-28T04:03:26.773Z,-5.55
2023-03-28T04:05:55.142Z,-6.49
2023-03-28T04:08:22.162Z,-5.32
2023-03-28T04:10:49.626Z,-4.89
2023-03-28T04:13:16.352Z,-4.80
2023-03-28T04:15:47.562Z,-4.75
2023-03-28T04:18:20.681Z,-4.98
2023-03-28T04:20:56.185Z,-4.88
2023-03-28T04:23:43.695Z,-4.51
2023-03-28T04:26:55.755Z,-4.55
2023-03-28T04:29:32.571Z,-4.38
2023-03-28T04:32:26.933Z,-4.74
2023-03-28T04:35:03.536Z,-4.47
2023-03-28T04:37:30.454Z,-4.56
2023-03-28T04:40:03.628Z,-4.75
2023-03-28T04:42:47.497Z,-4.94
2023-03-28T04:45:26.386Z,-5.33
2023-03-28T04:47:54.489Z,-5.09
2023-03-28T04:50:22.515Z,-5.36
2023-03-28T04:52:49.312Z,-6.32
2023-03-28T04:55:16.884Z,-7.15
2023-03-28T04:57:44.994Z,-8.41
2023-03-28T05:00:13.314Z,-8.44
2023-03-28T05:03:02.211Z,-9.73
2023-03-28T05:05:32.892Z,-8.30
2023-03-28T05:07:59.553Z,-7.73
2023-03-28T05:10:26.471Z,-7.94
2023-03-28T05:12:58.570Z,-6.73
2023-03-28T05:15:26.421Z,-6.70
2023-03-28T05:18:12.896Z,-8.40
2023-03-28T05:20:39.606Z,-9.12
2023-03-28T05:23:06.526Z,-9.26
2023-03-28T05:25:36.637Z,-10.27
2023-03-28T05:28:04.421Z,-9.17
2023-03-28T05:30:32.812Z,-9.21
2023-03-28T05:33:00.906Z,-11.71
2023-03-28T05:35:29.202Z,-7.79
2023-03-28T05:37:56.086Z,-6.92
2023-03-28T05:40:22.751Z,-6.92
2023-03-28T05:42:49.698Z,-7.64
2023-03-28T05:45:19.600Z,-8.03
2023-03-28T05:48:07.010Z,-8.28
2023-03-28T05:50:35.551Z,-8.58
2023-03-28T05:53:05.472Z,-8.45
2023-03-28T05:55:35.371Z,-8.52
2023-03-28T05:58:03.187Z,-8.48
2023-03-28T06:00:37.237Z,-8.55
2023-03-28T06:03:04.656Z,-8.19
2023-03-28T06:05:35.745Z,-9.13
2023-03-28T06:08:06.680Z,-9.81
2023-03-28T06:10:33.920Z,-7.91
2023-03-28T06:13:15.276Z,-8.25
2023-03-28T06:15:44.107Z,-7.46
2023-03-28T06:18:10.885Z,-8.32
2023-03-28T13:29:00.488Z,1.33
2023-03-28T13:31:27.319Z,1.88
2023-03-28T13:33:59.941Z,1.88
2023-03-28T13:36:29.342Z,1.68
2023-03-28T13:39:23.810Z,1.51
2023-03-28T13:41:50.381Z,1.62
2023-03-28T13:44:21.181Z,1.26
2023-03-28T13:46:49.715Z,0.80
2023-03-28T13:49:28.120Z,1.72
2023-03-28T13:52:04.624Z,1.74
2023-03-28T13:54:31.815Z,1.76
2023-03-28T13:57:08.387Z,1.64
2023-03-28T13:59:44.157Z,1.46
2023-03-28T14:02:18.516Z,1.61
2023-03-28T14:04:54.302Z,0.97
2023-03-28T14:07:28.324Z,1.55
2023-03-28T14:09:58.978Z,1.70
2023-03-28T14:12:29.381Z,1.68
2023-03-28T14:15:01.319Z,1.60
2023-03-28T14:17:32.780Z,1.70
2023-03-28T14:20:02.609Z,1.82
2023-03-28T14:22:31.421Z,1.80
2023-03-28T14:25:01.012Z,1.63
2023-03-28T14:27:41.342Z,-0.13
2023-03-28T14:30:30.826Z,0.35
2023-03-28T14:33:00.550Z,1.38
2023-03-28T14:35:32.695Z,1.91
2023-03-28T14:38:02.736Z,2.00
2023-03-28T14:40:34.237Z,1.97
2023-03-28T14:43:10.772Z,1.84
2023-03-28T14:45:43.468Z,1.61
2023-03-28T14:48:19.704Z,1.71
2023-03-28T14:50:50.202Z,1.01
2023-03-28T14:53:22.581Z,1.90
2023-03-28T14:55:51.103Z,1.92
2023-03-28T14:58:19.146Z,1.98
2023-03-28T15:00:52.599Z,1.31
2023-03-28T15:03:23.001Z,2.00
2023-03-28T15:05:51.750Z,1.54
2023-03-28T15:08:31.650Z,1.74
2023-03-28T15:11:05.530Z,1.96
2023-03-28T15:13:34.352Z,1.98
2023-03-28T15:16:01.509Z,1.98
2023-03-28T15:18:33.477Z,1.40
2023-03-28T15:21:03.118Z,1.49
2023-03-28T15:23:34.750Z,1.63
2023-03-28T15:26:12.725Z,2.10
2023-03-28T15:28:40.392Z,2.08
2023-03-28T15:31:09.393Z,2.14
2023-03-28T15:33:36.312Z,2.20
2023-03-28T15:36:08.140Z,1.80
2023-03-28T15:38:39.785Z,1.52
2023-03-28T15:41:11.877Z,2.24
2023-03-28T15:43:41.418Z,1.78
2023-03-28T15:46:11.739Z,1.80
2023-03-28T15:48:40.793Z,2.04
2023-03-28T15:51:16.367Z,1.00
2023-03-28T15:53:45.812Z,0.13
2023-03-28T15:56:21.482Z,2.19
2023-03-28T15:58:48.183Z,2.06
2023-03-28T16:01:18.051Z,2.19
2023-03-28T16:03:45.040Z,1.87
2023-03-28T16:06:30.765Z,0.11
2023-03-28T16:09:22.086Z,1.47
2023-03-28T16:12:03.175Z,2.23
2023-03-28T16:14:45.917Z,2.02
2023-03-28T16:17:33.428Z,1.17
2023-03-28T16:20:18.126Z,2.05
2023-03-28T16:22:45.901Z,1.90
2023-03-28T16:25:12.793Z,2.06
2023-03-28T16:27:40.265Z,2.14
2023-03-28T16:30:18.056Z,2.03
2023-03-28T16:32:44.963Z,1.99
2023-03-28T16:35:11.906Z,2.02
2023-03-28T16:37:38.529Z,-1.13
2023-03-28T16:40:05.778Z,2.07
2023-03-28T16:42:32.401Z,2.18
2023-03-28T16:44:59.831Z,2.25
2023-03-28T16:47:29.056Z,1.45
2023-03-28T16:49:55.857Z,2.06
2023-03-28T16:52:22.431Z,2.18
2023-03-28T16:54:49.115Z,2.19
2023-03-28T16:57:15.809Z,2.14
2023-03-28T16:59:42.447Z,2.01
2023-03-28T17:02:10.699Z,2.07
2023-03-28T17:04:37.436Z,2.09
2023-03-28T17:07:04.117Z,2.15
2023-03-28T17:09:32.776Z,1.54
2023-03-28T17:11:59.341Z,2.12
2023-03-28T17:14:25.989Z,1.55
2023-03-28T17:16:52.701Z,1.82
2023-03-28T17:19:23.125Z,1.47
2023-03-28T17:21:50.634Z,1.14
2023-03-28T17:24:18.100Z,2.09
2023-03-28T17:26:44.773Z,1.79
2023-03-28T17:29:12.022Z,0.50
2023-03-28T17:31:38.901Z,1.90
2023-03-28T17:34:05.536Z,2.13
2023-03-28T17:36:32.724Z,2.02
2023-03-28T17:38:59.438Z,2.04
2023-03-28T17:41:27.858Z,0.14
2023-03-28T17:43:56.550Z,2.04
2023-03-28T17:46:24.318Z,2.05
2023-03-28T17:48:50.950Z,2.05
2023-03-28T17:51:17.664Z,2.07
2023-03-28T17:53:46.547Z,2.09
2023-03-28T17:56:14.536Z,2.08
2023-03-28T17:58:42.213Z,2.05
2023-03-28T18:01:14.710Z,1.86
2023-03-28T18:03:41.627Z,1.91
2023-03-28T18:06:25.634Z,1.20
2023-03-28T18:08:52.252Z,1.94
2023-03-28T18:11:20.084Z,1.61
2023-03-28T18:13:46.829Z,1.96
2023-03-28T18:16:15.590Z,1.92
2023-03-28T18:18:42.370Z,1.97
2023-03-28T18:21:11.271Z,1.94
2023-03-28T18:23:38.352Z,1.68
2023-03-28T18:26:06.724Z,0.97
2023-03-28T18:28:36.675Z,2.06
2023-03-28T18:31:21.052Z,2.08
2023-03-28T18:33:47.643Z,2.00
2023-03-28T18:36:16.711Z,0.69
2023-03-28T18:38:47.843Z,0.62
2023-03-28T18:41:14.581Z,0.38
2023-03-28T18:43:42.571Z,1.84
2023-03-28T18:46:15.446Z,0.57
2023-03-28T18:48:43.035Z,0.22
2023-03-28T18:51:10.403Z,1.93
2023-03-28T18:53:37.887Z,1.70
2023-03-28T18:56:09.495Z,1.92
2023-03-28T18:58:39.274Z,1.73
2023-03-28T19:01:08.859Z,1.83
2023-03-28T19:03:41.709Z,1.63
2023-03-28T19:06:11.582Z,1.98
2023-03-28T19:08:38.371Z,2.02
2023-03-28T19:11:12.509Z,1.89
2023-03-28T19:13:41.041Z,1.92
2023-03-28T19:16:10.615Z,1.01
2023-03-28T19:18:38.758Z,1.88
2023-03-28T19:21:06.965Z,1.90
2023-03-28T19:23:34.018Z,1.65
2023-03-28T19:26:00.873Z,1.77
2023-03-28T19:28:27.570Z,1.76
2023-03-28T19:31:00.115Z,0.60
2023-03-28T19:33:27.774Z,2.00
2023-03-28T19:35:54.777Z,1.95
2023-03-28T19:38:22.969Z,1.23
2023-03-28T19:40:49.642Z,0.62
2023-03-28T19:43:20.938Z,1.09
2023-03-28T19:45:48.301Z,0.76
2023-03-28T19:48:15.785Z,1.27
2023-03-28T19:50:43.038Z,1.90
2023-03-28T19:53:10.597Z,1.79
2023-03-28T19:55:37.408Z,2.03
2023-03-28T19:58:08.635Z,1.76
2023-03-28T20:00:35.792Z,1.75
2023-03-28T20:03:03.141Z,1.82
2023-03-28T20:05:29.966Z,0.21
2023-03-28T20:07:56.543Z,1.29
2023-03-28T20:10:23.246Z,1.85
2023-03-28T20:12:49.819Z,1.50
2023-03-28T20:15:16.747Z,1.92
2023-03-28T20:17:43.317Z,1.96
2023-03-28T20:20:10.502Z,1.22
2023-03-28T20:22:37.898Z,1.98
2023-03-28T20:25:04.918Z,1.82
2023-03-28T20:27:32.062Z,0.49
2023-03-28T20:29:58.945Z,1.92
2023-03-28T20:32:25.817Z,1.84
2023-03-28T20:34:52.463Z,1.83
2023-03-28T20:37:20.098Z,1.46
2023-03-28T20:39:48.184Z,0.87
2023-03-28T20:42:14.934Z,1.82
2023-03-28T20:44:41.652Z,1.82
2023-03-28T20:47:10.606Z,1.32
2023-03-28T20:49:38.441Z,1.81
2023-03-28T20:52:07.900Z,1.78
2023-03-28T20:54:35.165Z,2.00
2023-03-28T20:57:02.217Z,1.97
2023-03-28T20:59:28.915Z,1.93
2023-03-28T21:01:56.056Z,1.67
2023-03-28T21:04:23.022Z,1.93
2023-03-28T21:06:50.220Z,1.99
2023-03-28T21:09:18.119Z,1.82
2023-03-28T21:11:45.390Z,0.64
2023-03-28T21:14:13.585Z,1.84
2023-03-28T21:16:41.038Z,1.79
2023-03-28T21:19:08.104Z,1.92
2023-03-28T21:21:35.100Z,1.51
2023-03-28T21:24:02.931Z,1.94
2023-03-28T21:26:30.042Z,1.90
2023-03-28T21:28:56.780Z,0.69
2023-03-28T21:31:26.469Z,1.97
2023-03-28T21:33:58.011Z,1.92
2023-03-28T21:36:25.504Z,1.87
2023-03-28T21:38:52.949Z,1.77
2023-03-28T21:41:19.711Z,1.80
2023-03-28T21:43:47.657Z,1.82
2023-03-28T21:46:15.304Z,1.88
2023-03-28T21:48:44.520Z,1.88
2023-03-28T21:51:11.942Z,1.62
2023-03-28T21:53:39.548Z,1.96
2023-03-28T21:56:07.008Z,1.90
2023-03-28T21:58:34.439Z,1.88
2023-03-28T22:01:02.816Z,1.45
2023-03-28T22:03:30.660Z,1.46
2023-03-28T22:05:57.543Z,1.61
2023-03-28T22:08:24.267Z,1.60
2023-03-28T22:10:58.665Z,1.04
2023-03-28T22:13:25.646Z,1.67
2023-03-28T22:15:52.848Z,1.70
2023-03-28T22:18:20.547Z,1.70
2023-03-28T22:20:53.127Z,1.77
2023-03-28T22:23:23.979Z,1.71
2023-03-28T22:25:51.082Z,1.50
2023-03-28T22:28:18.864Z,1.64
2023-03-28T22:30:45.554Z,1.67
2023-03-28T22:33:13.479Z,1.46
2023-03-28T22:35:40.113Z,1.49
2023-03-28T22:38:06.870Z,1.42
2023-03-28T22:40:34.284Z,-0.99
2023-03-28T22:43:01.412Z,1.30
2023-03-28T22:45:28.563Z,0.49
2023-03-28T22:47:58.318Z,0.86
2023-03-28T22:50:25.981Z,1.30
2023-03-28T22:52:53.216Z,1.34
2023-03-28T22:55:22.908Z,1.05
2023-03-28T22:57:51.639Z,1.08
2023-03-28T23:00:22.936Z,1.18
2023-03-28T23:02:53.304Z,1.12
2023-03-28T23:05:20.365Z,1.25
2023-03-28T23:07:47.422Z,1.32
2023-03-28T23:10:17.697Z,1.15
2023-03-28T23:12:45.404Z,0.91
2023-03-28T23:15:12.472Z,0.98
2023-03-28T23:17:39.814Z,0.67
2023-03-28T23:20:12.353Z,1.09
2023-03-28T23:22:43.729Z,0.50
2023-03-28T23:25:14.941Z,0.20
2023-03-28T23:27:43.068Z,0.63
2023-03-28T23:30:12.052Z,0.96
2023-03-28T23:32:38.964Z,0.67
2023-03-28T23:35:06.571Z,0.76
2023-03-28T23:37:34.587Z,0.43
2023-03-28T23:40:01.423Z,0.79
2023-03-28T23:42:28.115Z,0.85
2023-03-28T23:44:54.761Z,0.66
2023-03-28T23:47:21.494Z,0.38
2023-03-28T23:49:48.081Z,0.13
2023-03-28T23:52:16.319Z,-0.02
2023-03-28T23:54:44.185Z,-0.61
2023-03-28T23:57:10.958Z,-0.08
2023-03-28T23:59:37.561Z,-0.20
